Time;durP1;ratioP1;P1;durP2;ratioP2;P2;SDS_P1;SDS_P2;PMS_P1;PMS_P2;Temp;Humidity;BMP_temperature;BMP_pressure;BME280_temperature;BME280_humidity;BME280_pressure;Samples;Min_cycle;Max_cycle;Signal;HPM_P1;HPM_P2
2023/01/16 00:01:29;;;;;;;0.30;0.30;;;2.40;99.90;;;;;;5074277;28;20449;-80
2023/01/16 00:03:55;;;;;;;0.40;0.30;;;2.40;99.90;;;;;;5074170;28;20488;-80
2023/01/16 00:06:22;;;;;;;0.30;0.20;;;2.40;99.90;;;;;;5073394;28;20840;-80
2023/01/16 00:08:50;;;;;;;0.30;0.30;;;2.50;99.90;;;;;;5073933;28;20442;-80
2023/01/16 00:11:18;;;;;;;0.30;0.20;;;2.50;99.90;;;;;;5074120;28;20455;-80
2023/01/16 00:13:45;;;;;;;0.30;0.20;;;2.50;99.90;;;;;;5074077;28;20949;-80
2023/01/16 00:16:11;;;;;;;0.30;0.30;;;2.60;99.90;;;;;;5073625;28;20481;-80
2023/01/16 00:18:38;;;;;;;0.30;0.20;;;2.60;99.90;;;;;;5073721;28;20945;-80
2023/01/16 00:21:05;;;;;;;0.30;0.30;;;2.60;99.90;;;;;;5073923;28;20445;-80
2023/01/16 00:23:32;;;;;;;0.97;0.97;;;2.60;99.90;;;;;;5073947;28;20430;-80
2023/01/16 00:25:58;;;;;;;0.30;0.30;;;2.60;99.90;;;;;;5073716;28;20520;-81
2023/01/16 00:28:26;;;;;;;0.30;0.30;;;2.60;99.90;;;;;;5073494;28;20963;-81
2023/01/16 00:30:53;;;;;;;0.30;0.20;;;2.60;99.90;;;;;;5073763;28;20457;-80
2023/01/16 00:33:20;;;;;;;0.30;0.30;;;2.60;99.90;;;;;;5073710;28;20453;-80
2023/01/16 00:35:47;;;;;;;0.30;0.30;;;2.60;99.90;;;;;;5073632;28;20465;-80
2023/01/16 00:38:14;;;;;;;0.30;0.20;;;2.50;99.90;;;;;;5073729;28;20455;-80
2023/01/16 00:40:41;;;;;;;0.30;0.20;;;2.50;99.90;;;;;;5073687;28;20453;-80
2023/01/16 00:43:08;;;;;;;0.30;0.20;;;2.50;99.90;;;;;;5073677;28;20820;-80
2023/01/16 00:45:36;;;;;;;0.30;0.30;;;2.50;99.90;;;;;;5073191;28;20478;-80
2023/01/16 00:48:03;;;;;;;0.30;0.20;;;2.40;99.90;;;;;;5073255;28;20441;-80
2023/01/16 00:50:30;;;;;;;0.30;0.30;;;2.40;99.90;;;;;;5073505;28;20461;-80
2023/01/16 00:52:56;;;;;;;0.30;0.27;;;2.30;99.90;;;;;;5073551;28;20449;-80
2023/01/16 00:55:23;;;;;;;0.30;0.20;;;2.30;99.90;;;;;;5073403;28;20531;-80
2023/01/16 00:57:50;;;;;;;0.30;0.20;;;2.30;99.90;;;;;;5073150;28;20975;-80
2023/01/16 01:00:19;;;;;;;0.33;0.27;;;2.30;99.90;;;;;;5073129;28;20438;-80
2023/01/16 01:02:48;;;;;;;0.30;0.30;;;2.30;99.90;;;;;;5073011;28;20449;-80
2023/01/16 01:05:14;;;;;;;0.30;0.20;;;2.30;99.90;;;;;;5073193;28;20531;-80
2023/01/16 01:07:41;;;;;;;0.30;0.30;;;2.20;99.90;;;;;;5073325;28;20449;-80
2023/01/16 01:10:09;;;;;;;0.30;0.20;;;2.20;99.90;;;;;;5073347;28;20798;-80
2023/01/16 01:12:36;;;;;;;0.30;0.30;;;2.20;99.90;;;;;;5073258;28;20445;-80
2023/01/16 01:15:04;;;;;;;0.30;0.20;;;2.20;99.90;;;;;;5072957;28;20509;-80
2023/01/16 01:17:30;;;;;;;0.33;0.30;;;2.20;99.90;;;;;;5074118;28;20826;-80
2023/01/16 01:19:58;;;;;;;0.30;0.27;;;2.20;99.90;;;;;;5077350;28;20531;-80
2023/01/16 01:22:26;;;;;;;0.30;0.30;;;2.20;99.90;;;;;;5077119;28;20449;-80
2023/01/16 01:24:52;;;;;;;0.30;0.20;;;2.20;99.90;;;;;;5077246;28;20489;-80
2023/01/16 01:27:19;;;;;;;0.30;0.30;;;2.20;99.90;;;;;;5077351;28;20441;-80
2023/01/16 01:29:46;;;;;;;0.30;0.20;;;2.20;99.90;;;;;;5077259;28;20445;-81
2023/01/16 01:32:13;;;;;;;0.30;0.20;;;2.20;99.90;;;;;;5077224;28;20456;-81
2023/01/16 01:34:40;;;;;;;0.40;0.40;;;2.10;99.90;;;;;;5077068;28;20496;-80
2023/01/16 01:37:08;;;;;;;0.37;0.27;;;2.20;99.90;;;;;;5077106;28;20454;-81
2023/01/16 01:39:35;;;;;;;0.40;0.30;;;2.20;99.90;;;;;;5077103;28;20433;-81
2023/01/16 01:44:53;;;;;;;0.30;0.20;;;2.20;99.90;;;;;;5059118;28;21010;-80
2023/01/16 01:47:24;;;;;;;0.30;0.20;;;2.20;99.90;;;;;;5076981;28;20438;-80
2023/01/16 01:49:52;;;;;;;0.30;0.20;;;2.20;99.90;;;;;;5076933;28;20426;-80
2023/01/16 01:52:22;;;;;;;0.30;0.20;;;2.20;99.90;;;;;;5076801;28;20468;-80
2023/01/16 01:54:54;;;;;;;0.30;0.20;;;2.20;99.90;;;;;;5076720;28;20458;-80
2023/01/16 01:57:25;;;;;;;0.30;0.20;;;2.20;99.90;;;;;;5076759;28;20487;-80
2023/01/16 01:59:58;;;;;;;0.30;0.20;;;2.10;99.90;;;;;;5076375;28;20920;-80
2023/01/16 02:02:29;;;;;;;0.30;0.20;;;2.10;99.90;;;;;;5076660;28;20516;-80
2023/01/16 02:04:57;;;;;;;0.30;0.30;;;2.20;99.90;;;;;;5076448;28;20488;-80
2023/01/16 02:07:27;;;;;;;0.30;0.30;;;2.30;99.90;;;;;;5076279;28;20849;-80
2023/01/16 02:10:00;;;;;;;0.30;0.30;;;2.30;99.90;;;;;;5076158;28;20928;-80
2023/01/16 02:12:27;;;;;;;0.30;0.30;;;2.20;99.90;;;;;;5076419;28;20434;-80
2023/01/16 02:14:56;;;;;;;0.30;0.20;;;2.30;99.90;;;;;;5076245;28;20461;-80
2023/01/16 02:20:18;;;;;;;0.30;0.30;;;2.30;99.90;;;;;;5076331;28;20401;-80
2023/01/16 02:23:12;;;;;;;0.50;0.40;;;2.20;99.90;;;;;;5076162;28;20453;-80
2023/01/16 02:26:15;;;;;;;0.30;0.30;;;2.20;99.90;;;;;;5075866;28;20479;-80
2023/01/16 02:29:19;;;;;;;0.30;0.30;;;2.20;99.90;;;;;;5076194;28;20793;-81
2023/01/16 02:31:55;;;;;;;0.30;0.30;;;2.20;99.90;;;;;;5075330;28;20944;-81
2023/01/16 02:34:37;;;;;;;0.30;0.20;;;2.20;99.90;;;;;;5075999;28;20464;-81
2023/01/16 02:37:14;;;;;;;0.53;0.53;;;2.20;99.90;;;;;;5075989;28;20429;-81
2023/01/16 02:39:47;;;;;;;0.30;0.30;;;2.20;99.90;;;;;;5075971;28;20433;-81
2023/01/16 02:42:23;;;;;;;0.30;0.20;;;2.20;99.90;;;;;;5075945;28;20528;-81
2023/01/16 02:44:58;;;;;;;0.30;0.23;;;2.20;99.90;;;;;;5075742;28;20457;-81
2023/01/16 02:47:36;;;;;;;0.30;0.30;;;2.20;99.90;;;;;;5075501;28;20924;-81
2023/01/16 02:50:12;;;;;;;0.30;0.20;;;2.20;99.90;;;;;;5075846;28;20437;-81
2023/01/16 02:52:44;;;;;;;0.30;0.30;;;2.20;99.90;;;;;;5075454;28;20901;-81
2023/01/16 02:55:14;;;;;;;0.30;0.20;;;2.20;99.90;;;;;;5075619;28;20464;-81
2023/01/16 02:57:46;;;;;;;0.30;0.30;;;2.20;99.90;;;;;;5075625;28;20548;-81
2023/01/16 03:00:16;;;;;;;0.30;0.20;;;2.20;99.90;;;;;;5075717;28;20553;-81
2023/01/16 03:02:45;;;;;;;0.30;0.30;;;2.30;99.90;;;;;;5075550;28;20468;-81
2023/01/16 03:05:12;;;;;;;0.30;0.30;;;2.30;99.90;;;;;;5075327;28;20536;-81
2023/01/16 03:08:12;;;;;;;0.30;0.30;;;2.30;99.90;;;;;;5075405;28;20449;-81
2023/01/16 03:11:08;;;;;;;0.30;0.20;;;2.30;99.90;;;;;;5075370;28;20434;-81
2023/01/16 03:13:52;;;;;;;0.30;0.30;;;2.30;99.90;;;;;;5075039;28;20478;-81
2023/01/16 03:16:28;;;;;;;0.30;0.23;;;2.40;99.90;;;;;;5074873;28;20487;-81
2023/01/16 03:19:06;;;;;;;0.30;0.20;;;2.40;99.90;;;;;;5075269;28;20438;-81
2023/01/16 03:21:42;;;;;;;0.30;0.30;;;2.40;99.90;;;;;;5075189;28;20426;-81
2023/01/16 03:24:20;;;;;;;0.30;0.30;;;2.50;99.90;;;;;;5075052;28;20429;-81
2023/01/16 03:26:49;;;;;;;0.30;0.30;;;2.50;99.90;;;;;;5074662;28;20470;-81
2023/01/16 03:29:21;;;;;;;0.30;0.20;;;2.60;99.90;;;;;;5075009;28;20430;-81
2023/01/16 03:31:53;;;;;;;0.30;0.20;;;2.60;99.90;;;;;;5074950;28;20437;-81
2023/01/16 03:34:31;;;;;;;0.30;0.20;;;2.60;99.90;;;;;;5074712;28;20941;-81
2023/01/16 03:37:02;;;;;;;7.20;2.33;;;2.50;99.90;;;;;;5074892;28;20430;-81
2023/01/16 03:39:35;;;;;;;0.30;0.20;;;2.50;99.90;;;;;;5074538;28;20425;-81
2023/01/16 03:42:06;;;;;;;0.30;0.30;;;2.50;99.90;;;;;;5073744;28;20430;-81
2023/01/16 03:44:36;;;;;;;0.30;0.30;;;2.50;99.90;;;;;;5075646;28;20473;-81
2023/01/16 03:47:06;;;;;;;0.30;0.30;;;2.50;99.90;;;;;;5074526;28;20477;-81
2023/01/16 03:49:38;;;;;;;0.30;0.20;;;2.50;99.90;;;;;;5074381;28;20430;-81
2023/01/16 03:52:08;;;;;;;0.30;0.30;;;2.60;99.90;;;;;;5074275;28;20901;-81
2023/01/16 03:54:41;;;;;;;0.30;0.30;;;2.70;99.90;;;;;;5074412;28;20462;-81
2023/01/16 03:57:13;;;;;;;0.30;0.20;;;2.70;99.90;;;;;;5074446;28;20438;-82
2023/01/16 03:59:43;;;;;;;0.30;0.20;;;2.70;99.90;;;;;;5074396;28;20434;-82
2023/01/16 04:02:14;;;;;;;0.30;0.20;;;2.70;99.90;;;;;;5074339;28;20434;-82
2023/01/16 04:04:45;;;;;;;0.30;0.20;;;2.70;99.90;;;;;;5073923;28;20980;-82
2023/01/16 04:07:18;;;;;;;0.30;0.20;;;2.60;99.90;;;;;;5074170;28;20470;-82
2023/01/16 04:09:50;;;;;;;0.30;0.23;;;2.60;99.90;;;;;;5074255;28;20426;-82
2023/01/16 04:12:20;;;;;;;0.30;0.30;;;2.60;99.90;;;;;;5074150;28;20437;-82
2023/01/16 04:14:50;;;;;;;0.30;0.20;;;2.50;99.90;;;;;;5073827;28;20470;-82
2023/01/16 04:17:18;;;;;;;0.30;0.20;;;2.40;99.90;;;;;;5074053;28;20426;-82
2023/01/16 04:19:46;;;;;;;0.30;0.30;;;2.40;99.90;;;;;;5074071;28;20857;-82
2023/01/16 04:22:20;;;;;;;0.30;0.20;;;2.40;99.90;;;;;;5073912;28;20454;-82
2023/01/16 04:24:49;;;;;;;0.30;0.30;;;2.40;99.90;;;;;;5073811;28;20465;-82
2023/01/16 04:27:16;;;;;;;0.30;0.30;;;2.40;99.90;;;;;;5073785;28;20448;-82
2023/01/16 04:29:42;;;;;;;0.30;0.20;;;2.40;99.90;;;;;;5073831;28;20527;-82
2023/01/16 04:32:09;;;;;;;0.30;0.20;;;2.30;99.90;;;;;;5073787;28;20449;-82
2023/01/16 04:34:36;;;;;;;0.30;0.20;;;2.40;99.90;;;;;;5073706;28;20523;-82
2023/01/16 04:37:04;;;;;;;0.30;0.23;;;2.30;99.90;;;;;;5073754;28;20468;-82
2023/01/16 04:39:31;;;;;;;0.30;0.20;;;2.30;99.90;;;;;;5073441;28;20445;-84
2023/01/16 04:41:58;;;;;;;0.30;0.20;;;2.30;99.90;;;;;;5073681;28;20462;-83
2023/01/16 04:44:25;;;;;;;0.30;0.30;;;2.40;99.90;;;;;;5073286;28;20469;-83
2023/01/16 04:46:53;;;;;;;0.30;0.20;;;2.40;99.90;;;;;;5073510;28;20478;-83
2023/01/16 04:49:20;;;;;;;0.30;0.20;;;2.30;99.90;;;;;;5073504;28;20491;-83
2023/01/16 04:51:47;;;;;;;0.30;0.30;;;2.30;99.90;;;;;;5073586;28;20448;-83
2023/01/16 04:54:17;;;;;;;0.30;0.23;;;2.30;99.90;;;;;;5073057;28;20454;-83
2023/01/16 04:56:44;;;;;;;0.30;0.30;;;2.30;99.90;;;;;;5073513;28;20433;-83
2023/01/16 04:59:12;;;;;;;0.30;0.30;;;2.30;99.90;;;;;;5073520;28;20459;-83
2023/01/16 05:01:39;;;;;;;0.50;0.30;;;2.30;99.90;;;;;;5073136;28;20457;-83
2023/01/16 05:04:08;;;;;;;0.30;0.20;;;2.30;99.90;;;;;;5073243;28;20465;-83
2023/01/16 05:06:35;;;;;;;0.30;0.30;;;2.30;99.90;;;;;;5073293;28;20489;-83
2023/01/16 05:09:03;;;;;;;0.30;0.30;;;2.30;99.90;;;;;;5073347;28;20446;-83
2023/01/16 05:11:32;;;;;;;0.30;0.30;;;2.30;99.90;;;;;;5073297;28;20446;-83
2023/01/16 05:13:58;;;;;;;0.30;0.30;;;2.30;99.90;;;;;;5072920;28;20968;-83
2023/01/16 05:16:26;;;;;;;0.30;0.30;;;2.30;99.90;;;;;;5072818;28;20890;-83
2023/01/16 05:18:53;;;;;;;0.30;0.30;;;2.30;99.90;;;;;;5073218;28;20828;-83
2023/01/16 05:21:20;;;;;;;0.30;0.30;;;2.30;99.90;;;;;;5073272;28;20449;-82
2023/01/16 05:23:47;;;;;;;0.30;0.20;;;2.40;99.90;;;;;;5073260;28;20502;-83
2023/01/16 05:26:13;;;;;;;0.30;0.30;;;2.40;99.90;;;;;;5073085;28;20496;-83
2023/01/16 05:28:41;;;;;;;0.30;0.20;;;2.40;99.90;;;;;;5072915;28;20967;-83
2023/01/16 05:31:08;;;;;;;0.30;0.30;;;2.30;99.90;;;;;;5073081;28;20476;-83
2023/01/16 05:33:35;;;;;;;0.30;0.30;;;2.30;99.90;;;;;;5073155;28;20430;-82
2023/01/16 05:36:02;;;;;;;0.30;0.30;;;2.40;99.90;;;;;;5073004;28;20470;-83
2023/01/16 05:38:28;;;;;;;0.30;0.20;;;2.40;99.90;;;;;;5073040;28;20452;-83
2023/01/16 05:40:55;;;;;;;0.30;0.30;;;2.40;99.90;;;;;;5073078;28;20445;-81
2023/01/16 05:43:22;;;;;;;0.30;0.30;;;2.40;99.90;;;;;;5072686;28;20971;-82
2023/01/16 05:45:50;;;;;;;0.30;0.30;;;2.40;99.90;;;;;;5072597;28;20992;-82
2023/01/16 05:48:16;;;;;;;0.30;0.20;;;2.40;99.90;;;;;;5072975;28;20431;-82
2023/01/16 05:50:43;;;;;;;0.40;0.30;;;2.50;99.90;;;;;;5072923;28;20452;-82
2023/01/16 05:53:10;;;;;;;0.30;0.20;;;2.50;99.90;;;;;;5072599;28;20456;-82
2023/01/16 05:55:42;;;;;;;0.30;0.30;;;2.40;99.90;;;;;;5072854;28;20874;-80
2023/01/16 05:58:10;;;;;;;0.30;0.30;;;2.40;99.90;;;;;;5072893;28;20438;-80
2023/01/16 06:00:38;;;;;;;0.30;0.20;;;2.40;99.90;;;;;;5072907;28;20481;-80
2023/01/16 06:03:06;;;;;;;0.40;0.30;;;2.30;99.90;;;;;;5073381;28;20921;-80
2023/01/16 06:05:34;;;;;;;0.30;0.30;;;2.30;99.90;;;;;;5074286;28;20473;-80
2023/01/16 06:08:01;;;;;;;0.30;0.30;;;2.40;99.90;;;;;;5076423;28;20455;-80
2023/01/16 06:10:28;;;;;;;0.80;0.40;;;2.40;99.90;;;;;;5076162;28;21006;-80
2023/01/16 06:12:55;;;;;;;0.30;0.30;;;2.40;99.90;;;;;;5076395;28;20457;-80
2023/01/16 06:15:21;;;;;;;0.30;0.20;;;2.40;99.90;;;;;;5075869;28;20469;-80
2023/01/16 06:17:50;;;;;;;0.37;0.37;;;2.40;99.90;;;;;;5076335;28;20440;-80
2023/01/16 06:20:18;;;;;;;0.30;0.20;;;2.40;99.90;;;;;;5076270;28;20545;-80
2023/01/16 06:22:45;;;;;;;0.30;0.20;;;2.50;99.90;;;;;;5076224;28;20446;-80
2023/01/16 06:25:13;;;;;;;0.33;0.27;;;2.50;99.90;;;;;;5076161;28;20500;-80
2023/01/16 06:27:39;;;;;;;0.30;0.20;;;2.50;99.90;;;;;;5076037;28;20481;-80
2023/01/16 06:30:08;;;;;;;0.30;0.20;;;2.60;99.90;;;;;;5075962;28;20450;-80
2023/01/16 06:32:34;;;;;;;0.30;0.20;;;2.60;99.90;;;;;;5076070;28;20456;-80
2023/01/16 06:35:01;;;;;;;0.93;0.80;;;2.60;99.90;;;;;;5075946;28;20843;-80
2023/01/16 06:37:29;;;;;;;0.30;0.30;;;2.60;99.90;;;;;;5075670;28;20953;-81
2023/01/16 06:39:58;;;;;;;0.30;0.30;;;2.70;99.90;;;;;;5075916;28;20464;-80
2023/01/16 06:42:24;;;;;;;0.30;0.30;;;2.60;99.90;;;;;;5075866;28;20453;-80
2023/01/16 06:44:51;;;;;;;0.47;0.27;;;2.60;99.90;;;;;;5075787;28;20466;-80
2023/01/16 06:47:18;;;;;;;0.30;0.20;;;2.70;99.90;;;;;;5075425;28;20477;-80
2023/01/16 06:49:44;;;;;;;0.30;0.20;;;2.70;99.90;;;;;;5075750;28;20479;-80
2023/01/16 06:52:11;;;;;;;0.30;0.23;;;2.70;99.90;;;;;;5075719;28;20452;-80
2023/01/16 06:54:39;;;;;;;0.30;0.20;;;2.70;99.90;;;;;;5075568;28;20477;-80
2023/01/16 06:57:06;;;;;;;0.30;0.30;;;2.60;99.90;;;;;;5075290;28;20453;-80
2023/01/16 06:59:33;;;;;;;0.30;0.30;;;2.60;99.90;;;;;;5075562;28;20468;-80
2023/01/16 07:01:59;;;;;;;0.30;0.20;;;2.60;99.90;;;;;;5075299;28;20442;-80
2023/01/16 07:04:26;;;;;;;0.33;0.33;;;2.70;99.90;;;;;;5075514;28;20544;-82
2023/01/16 07:06:53;;;;;;;0.30;0.30;;;2.70;99.90;;;;;;5075035;28;20456;-82
2023/01/16 07:09:22;;;;;;;0.30;0.20;;;2.60;99.90;;;;;;5075378;28;20453;-82
2023/01/16 07:11:50;;;;;;;0.30;0.20;;;2.60;99.90;;;;;;5075080;28;20941;-82
2023/01/16 07:22:39;;;;;;;0.30;0.30;;;2.50;99.90;;;;;;5075233;28;20787;-82
2023/01/16 07:25:10;;;;;;;0.30;0.20;;;2.50;99.90;;;;;;5074736;28;20984;-82
2023/01/16 07:27:38;;;;;;;0.30;0.30;;;2.50;99.90;;;;;;5075013;28;20472;-82
2023/01/16 07:30:07;;;;;;;0.40;0.30;;;2.60;99.90;;;;;;5074641;28;20974;-82
2023/01/16 07:32:33;;;;;;;0.30;0.30;;;2.60;99.90;;;;;;5074950;28;20452;-81
2023/01/16 07:35:00;;;;;;;0.30;0.30;;;2.60;99.90;;;;;;5074888;28;20470;-82
2023/01/16 07:37:27;;;;;;;3.90;1.50;;;2.60;99.90;;;;;;5074827;28;20446;-82
2023/01/16 07:39:54;;;;;;;0.40;0.40;;;2.70;99.90;;;;;;5074730;28;20468;-82
2023/01/16 07:42:20;;;;;;;0.40;0.40;;;2.80;99.90;;;;;;5074737;28;20422;-82
2023/01/16 07:44:48;;;;;;;0.30;0.30;;;2.80;99.90;;;;;;5074656;28;20472;-81
2023/01/16 07:47:15;;;;;;;0.30;0.30;;;2.80;99.90;;;;;;5074258;28;20984;-80
2023/01/16 07:49:42;;;;;;;0.30;0.30;;;2.80;99.90;;;;;;5074230;28;20453;-81
2023/01/16 07:52:08;;;;;;;0.30;0.20;;;2.80;99.90;;;;;;5074524;28;20450;-81
2023/01/16 07:54:39;;;;;;;0.30;0.27;;;2.80;99.90;;;;;;5074382;28;20461;-80
2023/01/16 07:57:06;;;;;;;0.30;0.30;;;2.80;99.90;;;;;;5074455;28;20430;-80
2023/01/16 07:59:32;;;;;;;0.30;0.30;;;2.90;99.90;;;;;;5074056;28;20449;-80
2023/01/16 08:02:01;;;;;;;0.30;0.30;;;2.90;99.90;;;;;;5074250;28;20453;-80
2023/01/16 08:04:28;;;;;;;0.30;0.20;;;3.00;99.90;;;;;;5074201;28;20512;-81
2023/01/16 08:06:54;;;;;;;0.30;0.30;;;3.00;99.90;;;;;;5074140;28;20477;-81
2023/01/16 08:09:21;;;;;;;0.30;0.30;;;3.00;99.90;;;;;;5073855;28;20964;-80
2023/01/16 08:11:48;;;;;;;0.33;0.30;;;3.10;99.90;;;;;;5074112;28;20449;-80
2023/01/16 08:14:15;;;;;;;0.30;0.30;;;3.10;99.90;;;;;;5074007;28;20449;-81
2023/01/16 08:16:41;;;;;;;0.30;0.20;;;3.10;99.90;;;;;;5073590;28;20481;-80
2023/01/16 08:19:10;;;;;;;0.30;0.30;;;3.20;99.90;;;;;;5073971;28;20441;-80
2023/01/16 08:21:36;;;;;;;0.70;0.63;;;3.20;99.90;;;;;;5073650;28;20963;-81
2023/01/16 08:24:03;;;;;;;0.40;0.40;;;3.20;99.90;;;;;;5073814;28;20856;-81
2023/01/16 08:26:30;;;;;;;0.40;0.30;;;3.20;99.90;;;;;;5073427;28;20971;-81
2023/01/16 08:28:57;;;;;;;0.30;0.20;;;3.20;99.90;;;;;;5073268;28;20445;-81
2023/01/16 08:31:24;;;;;;;3.90;0.40;;;3.20;99.90;;;;;;5073741;28;20453;-81
2023/01/16 08:33:51;;;;;;;0.30;0.20;;;3.20;99.90;;;;;;5073734;28;20452;-81
2023/01/16 08:36:20;;;;;;;0.30;0.30;;;3.30;99.90;;;;;;5073659;28;20465;-81
2023/01/16 08:38:48;;;;;;;4.40;0.63;;;3.30;99.90;;;;;;5073630;28;20441;-81
2023/01/16 08:52:14;;;;;;;0.30;0.20;;;3.20;99.90;;;;;;5073615;28;20409;-81
2023/01/16 08:54:41;;;;;;;0.30;0.30;;;3.20;99.90;;;;;;5073357;28;20477;-80
2023/01/16 08:57:09;;;;;;;0.33;0.30;;;3.10;99.90;;;;;;5073157;28;20960;-81
2023/01/16 08:59:36;;;;;;;2.87;0.80;;;3.20;99.90;;;;;;5073396;28;20465;-81
2023/01/16 09:02:03;;;;;;;0.30;0.20;;;3.20;99.90;;;;;;5073381;28;20453;-81
2023/01/16 09:04:30;;;;;;;3.80;0.60;;;3.10;99.90;;;;;;5073325;28;20468;-81
2023/01/16 09:06:57;;;;;;;0.30;0.20;;;3.10;99.90;;;;;;5073251;28;20817;-81
2023/01/16 09:09:25;;;;;;;0.30;0.30;;;3.10;99.90;;;;;;5073311;28;20456;-81
2023/01/16 09:14:40;;;;;;;0.30;0.27;;;3.30;99.90;;;;;;5073218;28;20587;-81
2023/01/16 09:17:07;;;;;;;0.30;0.30;;;3.30;99.90;;;;;;5073313;28;20429;-81
2023/01/16 09:19:35;;;;;;;0.30;0.30;;;3.40;99.90;;;;;;5073301;28;20441;-81
2023/01/16 09:22:05;;;;;;;0.40;0.40;;;3.40;99.90;;;;;;5073233;28;20446;-81
2023/01/16 09:24:33;;;;;;;0.30;0.30;;;3.50;99.90;;;;;;5073086;28;20493;-81
2023/01/16 09:27:00;;;;;;;0.30;0.20;;;3.60;99.90;;;;;;5073077;28;20525;-81
2023/01/16 09:29:27;;;;;;;0.30;0.30;;;3.60;99.90;;;;;;5073155;28;20812;-81
2023/01/16 09:31:54;;;;;;;0.30;0.30;;;3.70;99.90;;;;;;5073059;28;20449;-80
2023/01/16 09:34:21;;;;;;;0.30;0.20;;;3.70;99.90;;;;;;5072763;28;20438;-81
2023/01/16 09:36:47;;;;;;;0.47;0.47;;;3.70;99.90;;;;;;5072794;28;20963;-81
2023/01/16 09:39:14;;;;;;;0.30;0.20;;;3.90;99.90;;;;;;5072949;28;20457;-81
2023/01/16 09:44:49;;;;;;;0.30;0.20;;;4.20;99.90;;;;;;5077016;28;20464;-83
2023/01/16 09:47:17;;;;;;;0.30;0.30;;;4.30;99.90;;;;;;5076909;28;20485;-83
2023/01/16 09:49:47;;;;;;;0.30;0.20;;;4.40;99.90;;;;;;5076591;28;20449;-83
2023/01/16 10:00:57;;;;;;;0.60;0.30;;;4.60;99.90;;;;;;5014673;28;20562;-83
2023/01/16 10:03:23;;;;;;;0.30;0.30;;;4.60;99.90;;;;;;5014582;28;20896;-82
2023/01/16 10:05:59;;;;;;;0.30;0.20;;;4.60;99.90;;;;;;5041893;28;20468;-83
2023/01/16 10:08:32;;;;;;;0.40;0.30;;;4.60;99.90;;;;;;5076250;28;21026;-84
2023/01/16 10:11:07;;;;;;;0.30;0.20;;;4.70;99.90;;;;;;5076353;28;20418;-84
2023/01/16 10:14:06;;;;;;;0.30;0.20;;;4.70;99.90;;;;;;5076508;28;20413;-84
2023/01/16 10:16:44;;;;;;;0.30;0.20;;;4.70;99.90;;;;;;5076000;28;20477;-83
2023/01/16 10:19:25;;;;;;;0.40;0.30;;;4.70;99.90;;;;;;5076497;28;20499;-83
2023/01/16 10:22:06;;;;;;;0.30;0.20;;;4.70;99.90;;;;;;5076394;28;20441;-83
2023/01/16 10:24:44;;;;;;;0.30;0.20;;;4.60;99.90;;;;;;5076254;28;20872;-84
2023/01/16 10:27:18;;;;;;;0.30;0.27;;;4.60;99.90;;;;;;5076234;28;20440;-83
2023/01/16 10:29:53;;;;;;;0.33;0.20;;;4.60;99.90;;;;;;5076309;28;20429;-83
2023/01/16 10:32:27;;;;;;;0.30;0.30;;;4.60;99.90;;;;;;5076236;28;20781;-83
2023/01/16 10:35:03;;;;;;;0.30;0.20;;;4.60;99.90;;;;;;5075985;28;20465;-84
2023/01/16 10:37:30;;;;;;;0.30;0.30;;;4.60;99.90;;;;;;5076375;28;20520;-84
2023/01/16 10:40:01;;;;;;;0.30;0.20;;;4.70;99.90;;;;;;5075919;28;20792;-83
2023/01/16 10:50:50;;;;;;;0.30;0.30;;;4.80;99.90;;;;;;5075146;28;20612;-84
2023/01/16 10:53:16;;;;;;;0.30;0.20;;;5.00;99.90;;;;;;5075375;28;20960;-84
2023/01/16 10:55:47;;;;;;;0.30;0.20;;;5.00;99.90;;;;;;5075692;28;20477;-84
2023/01/16 10:58:24;;;;;;;0.67;0.27;;;5.00;99.90;;;;;;5075428;28;20932;-84
2023/01/16 11:00:53;;;;;;;0.30;0.20;;;5.10;99.90;;;;;;5075646;28;20437;-85
2023/01/16 11:03:28;;;;;;;0.30;0.30;;;5.00;99.90;;;;;;5075654;28;20446;-84
2023/01/16 11:06:08;;;;;;;0.30;0.20;;;5.10;99.90;;;;;;5075604;28;20469;-84
2023/01/16 11:08:35;;;;;;;0.30;0.20;;;5.10;99.90;;;;;;5075131;28;20552;-84
2023/01/16 11:11:02;;;;;;;0.30;0.20;;;5.10;99.90;;;;;;5075537;28;20449;-85
2023/01/16 11:19:20;;;;;;;0.30;0.20;;;5.10;99.90;;;;;;5075396;28;20405;-84
2023/01/16 11:21:52;;;;;;;0.30;0.20;;;5.20;99.90;;;;;;5074909;28;20937;-84
2023/01/16 11:24:22;;;;;;;0.30;0.20;;;5.10;99.90;;;;;;5075136;28;20452;-84
2023/01/16 11:26:52;;;;;;;0.30;0.20;;;5.20;99.90;;;;;;5075211;28;20449;-84
2023/01/16 11:29:23;;;;;;;0.30;0.20;;;5.20;99.90;;;;;;5075061;28;20485;-84
2023/01/16 11:31:55;;;;;;;0.30;0.27;;;5.20;99.90;;;;;;5074789;28;20970;-84
2023/01/16 11:34:26;;;;;;;0.30;0.30;;;5.20;99.90;;;;;;5075017;28;20461;-84
2023/01/16 11:36:53;;;;;;;0.30;0.30;;;5.10;99.90;;;;;;5074877;28;20446;-84
2023/01/16 11:39:22;;;;;;;0.40;0.30;;;5.10;99.90;;;;;;5074853;28;20519;-83
2023/01/16 11:41:52;;;;;;;0.30;0.20;;;5.00;99.90;;;;;;5074728;28;20814;-84
2023/01/16 11:47:11;;;;;;;0.30;0.20;;;5.30;99.90;;;;;;5075361;28;20414;-84
2023/01/16 11:49:40;;;;;;;0.30;0.20;;;5.20;99.90;;;;;;5075286;28;20462;-84
2023/01/16 11:52:14;;;;;;;0.30;0.20;;;5.30;99.90;;;;;;5075364;28;20449;-84
2023/01/16 11:54:41;;;;;;;0.30;0.20;;;5.20;99.90;;;;;;5075140;28;20474;-85
2023/01/16 11:57:24;;;;;;;0.30;0.20;;;5.20;99.90;;;;;;5075145;28;20453;-84
2023/01/16 12:00:19;;;;;;;0.30;0.20;;;5.20;99.90;;;;;;5075498;28;20453;-84
2023/01/16 12:03:28;;;;;;;0.30;0.20;;;5.20;99.90;;;;;;5074190;28;20433;-84
2023/01/16 12:06:06;;;;;;;0.30;0.20;;;5.20;99.90;;;;;;5075284;28;20473;-83
2023/01/16 12:08:56;;;;;;;0.30;0.20;;;5.30;99.90;;;;;;5076304;28;20469;-84
2023/01/16 12:11:36;;;;;;;0.30;0.20;;;5.30;99.90;;;;;;5074882;28;20432;-84
2023/01/16 12:14:19;;;;;;;0.30;0.20;;;5.30;99.90;;;;;;5074573;28;20950;-84
2023/01/16 12:17:07;;;;;;;0.30;0.30;;;5.20;99.90;;;;;;5073977;28;20568;-84
2023/01/16 12:20:01;;;;;;;0.30;0.20;;;5.20;99.90;;;;;;5074361;28;20422;-84
2023/01/16 12:22:40;;;;;;;0.30;0.20;;;5.20;99.90;;;;;;5074683;28;20429;-84
2023/01/16 12:25:20;;;;;;;0.30;0.30;;;5.20;99.90;;;;;;5074251;28;20468;-84
2023/01/16 12:27:58;;;;;;;0.30;0.20;;;5.30;99.90;;;;;;5074238;28;20433;-84
2023/01/16 12:30:37;;;;;;;0.43;0.30;;;5.20;99.90;;;;;;5073876;28;20433;-84
2023/01/16 12:33:13;;;;;;;0.30;0.23;;;5.30;99.90;;;;;;5075522;28;20913;-83
2023/01/16 12:35:54;;;;;;;0.30;0.30;;;5.30;99.90;;;;;;5078155;28;20465;-83
2023/01/16 12:38:27;;;;;;;0.30;0.20;;;5.30;99.90;;;;;;5078666;28;20429;-84
2023/01/16 12:44:40;;;;;;;0.30;0.20;;;5.40;99.90;;;;;;5015938;28;21004;-85
2023/01/16 12:47:26;;;;;;;0.30;0.20;;;5.40;99.90;;;;;;5016403;28;20428;-83
2023/01/16 12:50:06;;;;;;;0.33;0.27;;;5.40;99.90;;;;;;5071455;28;20488;-83
2023/01/16 12:52:48;;;;;;;0.30;0.30;;;5.40;99.90;;;;;;5076420;28;20897;-84
2023/01/16 12:55:30;;;;;;;0.30;0.20;;;5.40;99.90;;;;;;5075979;28;20527;-84
2023/01/16 12:58:05;;;;;;;0.30;0.20;;;5.50;99.90;;;;;;5076202;28;20410;-84
2023/01/16 13:00:37;;;;;;;0.30;0.20;;;5.40;99.90;;;;;;5076294;28;20429;-84
2023/01/16 13:03:18;;;;;;;0.30;0.30;;;5.40;99.90;;;;;;5076086;28;20441;-84
2023/01/16 13:05:45;;;;;;;0.30;0.30;;;5.60;99.90;;;;;;5076045;28;20469;-83
2023/01/16 13:08:20;;;;;;;0.30;0.20;;;5.60;99.90;;;;;;5074812;28;20526;-84
2023/01/16 13:13:38;;;;;;;0.30;0.20;;;5.50;99.90;;;;;;5075794;28;20406;-84
2023/01/16 13:16:13;;;;;;;0.30;0.20;;;5.60;99.90;;;;;;5076367;28;20576;-83
2023/01/16 13:18:43;;;;;;;0.30;0.20;;;5.60;99.90;;;;;;5076491;28;20434;-84
2023/01/16 13:21:15;;;;;;;0.30;0.30;;;5.60;99.90;;;;;;5073521;28;20433;-84
2023/01/16 13:23:48;;;;;;;0.30;0.20;;;5.60;99.90;;;;;;5073062;28;20436;-85
2023/01/16 13:26:17;;;;;;;0.30;0.30;;;5.60;99.90;;;;;;5073360;28;20465;-84
2023/01/16 13:28:50;;;;;;;0.30;0.20;;;5.70;99.90;;;;;;5072906;28;20869;-84
2023/01/16 13:31:24;;;;;;;0.30;0.20;;;5.70;99.90;;;;;;5073201;28;20441;-85
2023/01/16 13:33:57;;;;;;;0.30;0.30;;;5.70;99.90;;;;;;5073181;28;20442;-84
2023/01/16 13:36:59;;;;;;;0.30;0.20;;;5.70;99.90;;;;;;5073115;28;20466;-83
2023/01/16 13:40:06;;;;;;;0.30;0.20;;;5.70;99.90;;;;;;5073261;28;20430;-84
2023/01/16 13:42:35;;;;;;;0.30;0.30;;;5.60;99.90;;;;;;5042506;28;20462;-84
2023/01/16 13:47:52;;;;;;;0.30;0.20;;;5.60;99.90;;;;;;5072779;28;20424;-84
2023/01/16 13:50:24;;;;;;;0.30;0.27;;;5.50;99.90;;;;;;5072948;28;20898;-83
2023/01/16 13:52:54;;;;;;;0.30;0.27;;;5.50;99.90;;;;;;5072962;28;20461;-83
2023/01/16 13:55:29;;;;;;;0.30;0.30;;;5.50;99.90;;;;;;5073091;28;20473;-85
2023/01/16 13:58:07;;;;;;;0.40;0.30;;;5.40;99.90;;;;;;5074950;28;20799;-83
2023/01/16 14:00:35;;;;;;;0.30;0.20;;;5.50;99.90;;;;;;5078166;28;20434;-83
2023/01/16 14:03:17;;;;;;;0.30;0.30;;;5.50;99.90;;;;;;5078737;28;20956;-84
2023/01/16 14:05:48;;;;;;;0.30;0.20;;;5.50;99.90;;;;;;5078519;28;20472;-84
2023/01/16 14:11:25;;;;;;;0.30;0.20;;;5.40;99.90;;;;;;5078737;28;20416;-84
2023/01/16 14:17:14;;;;;;;0.30;0.20;;;5.40;99.90;;;;;;5079186;28;20404;-84
2023/01/16 14:19:50;;;;;;;0.30;0.30;;;5.30;99.90;;;;;;5077982;28;20445;-83
2023/01/16 14:25:09;;;;;;;0.30;0.20;;;5.20;99.90;;;;;;5079107;28;20501;-83
2023/01/16 14:27:39;;;;;;;0.30;0.20;;;5.10;99.90;;;;;;5082967;28;20434;-83
2023/01/16 14:30:16;;;;;;;0.30;0.30;;;4.90;99.90;;;;;;5082665;28;20894;-83
2023/01/16 14:32:47;;;;;;;0.30;0.30;;;5.00;99.90;;;;;;5082473;28;20437;-84